Aérodrome :
LOGIN :

S'inscrire | Disclaimer

   EN    FR    IT 

 










Légende :    VFR   VFR Marginal   IFR   IFR Intensif   IFR Très Intensif
Visi : 
Plafond : 
>= 8 km
>= 3000ft
5 à 8 km
1000 à 3000 ft
1500m à 5 km
500 à 1000 ft
800 à 1500m
200 à 500 ft
< 800m
< 200 ft
Symboles :   Orages  Brouillard  Fortes neiges  Fortes précipitations  Vent > 20 kt
SIGMETs :   Divers  Orages  Givrage  Turbulence  Onde Orograph.  Cendres Volcan.






- Altitude de l'aérodrome : 464 ft
- Code IATA : EVX


LFOE - Evreux

DERNIER METAR :
  • 080900Z AUTO 21002KT 4400 BR BKN003 OVC026 01/01 Q1011 BECMG 6000 NSW BKN005

METARs EXPIRÉS :
  • 080830Z AUTO 00000KT 6000 BKN002 OVC060 00/00 Q1011 TEMPO 4000 BR BECMG BKN008 OVC015
  • 080800Z AUTO 00000KT 5000 BR BKN002 BKN042 OVC062 00/00 Q1011 NOSIG
  • 080730Z AUTO 00000KT 6000 BKN002 OVC043 00/00 Q1011 TEMPO 4000 BR
  • 080700Z AUTO 00000KT 6000 SCT002 SCT017 BKN039 00/00 Q1011 TEMPO 4000 BR BKN002
  • 080630Z AUTO 00000KT 5000 BR BKN002 BKN007 OVC037 00/00 Q1012 NOSIG

TAF TAF LFOE
Valide du 08 à 09h jusqu'au 09 à 09h UTC


080800Z 0809/0909 VRB02KT 6000 BKN002 OVC060
TEMPO 0809/0810 4000 BR
BECMG 0810/0812 BKN005
BECMG 0812/0814 BKN008 OVC015
BECMG 0819/0821 0600 FG OVC001
TEMPO 0820/0903 0300 FG VV///
TEMPO 0823/0903 FZFG
BECMG 0903/0905 2000 BR OVC002



MET'MAP, la Météo Aéronautique d'un coup d'oeil ! - Copyright ORBIFLY Décembre 2007 - Disclaimer

ORBIFLY MET'MAP TEAM :

Programmation & Développement : Alexandra Zaïnal
Sur une idée originale de : Baudouin d'Aumeries
Soutien technique & logistique : Manuel Goepfert
Assistance : Marc-Olivier Méhu




SOURCES & CREDITS :

   NOAA